createdAt,value
2022-10-23T00:01:16.695Z,86.12
2022-10-23T00:03:44.243Z,85.48
2022-10-23T00:06:12.746Z,85.54
2022-10-23T00:08:40.255Z,85.92
2022-10-23T00:11:15.635Z,84.95
2022-10-23T00:13:42.492Z,85.93
2022-10-23T00:16:09.739Z,85.41
2022-10-23T00:18:37.583Z,86.46
2022-10-23T00:21:05.642Z,85.76
2022-10-23T00:23:32.239Z,85.96
2022-10-23T00:25:58.912Z,87.01
2022-10-23T00:28:25.567Z,87.37
2022-10-23T00:30:52.338Z,88.84
2022-10-23T00:33:18.969Z,89.72
2022-10-23T00:35:45.499Z,89.20
2022-10-23T00:38:12.675Z,88.23
2022-10-23T00:40:42.223Z,87.54
2022-10-23T00:43:20.532Z,87.42
2022-10-23T00:45:47.506Z,87.35
2022-10-23T00:48:15.035Z,86.50
2022-10-23T00:50:42.157Z,85.17
2022-10-23T00:53:11.833Z,84.48
2022-10-23T00:55:41.188Z,85.07
2022-10-23T00:58:07.799Z,85.70
2022-10-23T01:00:50.491Z,85.41
2022-10-23T01:03:19.140Z,85.64
2022-10-23T01:06:05.226Z,85.54
2022-10-23T01:08:47.114Z,86.00
2022-10-23T01:11:30.722Z,87.65
2022-10-23T01:16:41.834Z,88.02
2022-10-23T01:19:27.206Z,88.11
2022-10-23T01:22:18.527Z,88.22
2022-10-23T01:24:45.223Z,87.89
2022-10-23T01:27:24.275Z,88.37
2022-10-23T01:30:21.117Z,88.35
2022-10-23T01:33:04.731Z,89.51
2022-10-23T01:35:40.570Z,89.21
2022-10-23T01:38:27.609Z,89.22
2022-10-23T01:41:03.160Z,88.56
2022-10-23T01:43:44.111Z,89.39
2022-10-23T01:46:14.626Z,89.39
2022-10-23T01:48:46.177Z,90.52
2022-10-23T01:51:14.439Z,92.04
2022-10-23T01:53:43.514Z,90.90
2022-10-23T01:56:18.600Z,90.41
2022-10-23T01:58:48.799Z,89.35
2022-10-23T02:01:18.263Z,89.31
2022-10-23T02:03:45.869Z,88.21
2022-10-23T02:06:12.537Z,87.62
2022-10-23T02:08:39.540Z,88.84
2022-10-23T02:11:11.350Z,86.78
2022-10-23T02:14:03.210Z,89.04
2022-10-23T02:16:41.510Z,89.68
2022-10-23T02:19:17.823Z,89.54
2022-10-23T02:21:56.443Z,90.78
2022-10-23T02:24:32.892Z,91.64
2022-10-23T02:27:10.349Z,91.51
2022-10-23T02:29:42.335Z,91.50
2022-10-23T02:32:11.007Z,91.08
2022-10-23T02:34:37.683Z,91.85
2022-10-23T02:37:04.644Z,91.76
2022-10-23T02:39:31.435Z,90.79
2022-10-23T02:42:04.904Z,91.02
2022-10-23T02:44:43.350Z,91.08
2022-10-23T02:47:50.933Z,91.49
2022-10-23T02:50:33.810Z,93.44
2022-10-23T02:53:23.815Z,92.68
2022-10-23T02:56:03.801Z,92.26
2022-10-23T02:58:36.429Z,92.27
2022-10-23T03:01:09.996Z,95.27
2022-10-23T03:03:42.538Z,95.53
2022-10-23T03:06:09.221Z,95.76
2022-10-23T03:08:52.079Z,95.66
2022-10-23T03:11:18.732Z,95.97
2022-10-23T03:13:45.573Z,93.35
2022-10-23T03:16:12.245Z,97.85
2022-10-23T03:18:38.763Z,96.17
2022-10-23T03:21:05.334Z,95.41
2022-10-23T03:23:31.871Z,94.57
2022-10-23T03:25:58.464Z,94.07
2022-10-23T03:28:25.091Z,93.51
2022-10-23T03:30:52.189Z,92.97
2022-10-23T03:33:18.858Z,92.47
2022-10-23T03:35:45.934Z,92.04
2022-10-23T03:38:12.467Z,92.04
2022-10-23T03:40:39.039Z,93.11
2022-10-23T03:43:06.098Z,92.63
2022-10-23T03:45:32.678Z,91.26
2022-10-23T03:47:59.247Z,91.35
2022-10-23T03:50:25.818Z,90.78
2022-10-23T03:52:52.348Z,89.86
2022-10-23T03:55:18.973Z,89.77
2022-10-23T03:57:45.630Z,88.61
2022-10-23T04:00:12.967Z,88.10
2022-10-23T04:02:39.708Z,87.45
2022-10-23T04:05:06.676Z,85.93
2022-10-23T04:07:33.273Z,83.24
2022-10-23T04:09:59.849Z,81.18
2022-10-23T04:12:26.411Z,80.48
2022-10-23T04:14:52.982Z,80.04
2022-10-23T04:17:19.548Z,79.41
2022-10-23T04:19:46.121Z,80.23
2022-10-23T04:22:12.702Z,80.09
2022-10-23T04:24:39.275Z,80.31
2022-10-23T04:27:05.802Z,81.68
2022-10-23T04:29:32.590Z,80.79
2022-10-23T04:31:59.344Z,81.73
2022-10-23T04:34:25.939Z,82.14
2022-10-23T04:36:52.565Z,83.34
2022-10-23T04:39:19.254Z,84.50
2022-10-23T04:41:45.912Z,84.88
2022-10-23T04:44:12.494Z,84.00
2022-10-23T04:46:39.081Z,84.26
2022-10-23T04:49:05.720Z,84.56
2022-10-23T04:51:32.233Z,84.86
2022-10-23T04:53:58.905Z,82.94
2022-10-23T04:56:25.495Z,81.33
2022-10-23T04:58:52.687Z,79.93
2022-10-23T05:01:19.558Z,80.05
2022-10-23T05:03:46.250Z,79.24
2022-10-23T05:06:13.063Z,78.69
2022-10-23T05:08:39.653Z,78.22
2022-10-23T05:11:06.264Z,77.55
2022-10-23T05:13:32.827Z,77.02
2022-10-23T05:16:00.266Z,74.51
2022-10-23T05:18:32.211Z,72.79
2022-10-23T05:21:06.483Z,72.10
2022-10-23T05:23:35.318Z,71.45
2022-10-23T05:26:03.297Z,71.08
2022-10-23T05:28:30.118Z,68.91
2022-10-23T05:30:59.971Z,66.37
2022-10-23T05:33:27.846Z,65.59
2022-10-23T05:35:54.638Z,65.20
2022-10-23T05:38:21.791Z,63.19
2022-10-23T05:40:48.582Z,63.29
2022-10-23T05:43:15.138Z,62.50
2022-10-23T05:45:41.717Z,61.30
2022-10-23T05:48:22.113Z,59.99
2022-10-23T05:50:49.270Z,59.38
2022-10-23T05:53:15.847Z,58.67
2022-10-23T05:55:42.400Z,58.16
2022-10-23T05:58:08.965Z,56.88
2022-10-23T06:00:35.504Z,58.37
2022-10-23T06:03:02.575Z,57.46
2022-10-23T06:05:29.347Z,57.15
2022-10-23T06:07:59.794Z,57.08
2022-10-23T06:10:27.226Z,57.20
2022-10-23T06:12:53.942Z,56.34
2022-10-23T06:15:20.510Z,53.06
2022-10-23T06:17:47.081Z,52.08
2022-10-23T06:20:13.762Z,52.22
2022-10-23T06:22:40.602Z,51.88
2022-10-23T06:25:08.138Z,50.92
2022-10-23T06:27:34.708Z,50.82
2022-10-23T06:30:01.329Z,51.43
2022-10-23T06:32:32.272Z,51.11
2022-10-23T06:34:58.891Z,50.86
2022-10-23T06:37:25.646Z,50.32
2022-10-23T06:39:52.262Z,49.46
2022-10-23T06:42:18.836Z,49.44
2022-10-23T06:44:45.390Z,49.09
2022-10-23T06:47:14.121Z,48.58
2022-10-23T06:49:40.820Z,48.22
2022-10-23T06:52:14.242Z,47.66
2022-10-23T06:54:53.968Z,46.71
2022-10-23T06:57:20.512Z,46.16
2022-10-23T06:59:47.099Z,45.80
2022-10-23T07:02:13.697Z,44.76
2022-10-23T07:04:41.221Z,43.97
2022-10-23T07:07:07.778Z,44.13
2022-10-23T07:09:36.198Z,43.92
2022-10-23T07:12:02.795Z,43.91
2022-10-23T07:14:32.170Z,43.86
2022-10-23T07:16:58.989Z,44.14
2022-10-23T07:19:25.704Z,43.87
2022-10-23T07:21:52.445Z,44.02
2022-10-23T07:24:18.987Z,43.99
2022-10-23T07:26:45.794Z,43.71
2022-10-23T07:29:13.004Z,43.66
2022-10-23T07:31:39.829Z,43.37
2022-10-23T07:34:06.528Z,43.68
2022-10-23T07:36:33.143Z,43.80
2022-10-23T07:38:59.716Z,43.81
2022-10-23T07:43:52.740Z,44.11
2022-10-23T07:46:19.347Z,43.43
2022-10-23T07:48:45.992Z,43.75
2022-10-23T07:51:15.798Z,43.24
2022-10-23T07:53:43.154Z,43.28
2022-10-23T07:56:29.841Z,43.67
2022-10-23T07:58:56.471Z,44.08
2022-10-23T08:01:42.722Z,43.97
2022-10-23T08:04:10.585Z,44.19
2022-10-23T08:06:37.184Z,44.60
2022-10-23T08:09:06.509Z,45.01
2022-10-23T08:11:35.766Z,44.98
2022-10-23T08:14:04.721Z,43.94
2022-10-23T08:16:37.137Z,43.94
2022-10-23T08:19:06.018Z,44.20
2022-10-23T08:21:32.998Z,44.21
2022-10-23T08:24:00.838Z,43.68
2022-10-23T08:26:31.531Z,43.94
2022-10-23T08:29:01.529Z,43.54
2022-10-23T08:31:28.291Z,43.53
2022-10-23T08:33:55.018Z,42.86
2022-10-23T08:36:27.509Z,42.35
2022-10-23T08:38:58.659Z,42.52
2022-10-23T08:41:28.147Z,42.13
2022-10-23T08:44:27.352Z,42.29
2022-10-23T08:47:17.358Z,41.30
2022-10-23T08:50:16.321Z,41.53
2022-10-23T08:52:52.467Z,39.55
2022-10-23T08:55:34.898Z,40.63
2022-10-23T08:58:10.956Z,38.83
2022-10-23T09:00:37.642Z,38.74
2022-10-23T09:03:05.714Z,39.14
2022-10-23T09:05:56.080Z,36.61
2022-10-23T09:09:08.790Z,36.40
2022-10-23T09:11:49.183Z,37.69
2022-10-23T09:14:28.006Z,37.65
2022-10-23T09:17:27.028Z,37.98
2022-10-23T09:20:21.925Z,38.15
2022-10-23T09:23:00.530Z,38.52
2022-10-23T09:25:31.209Z,38.75
2022-10-23T09:28:02.918Z,37.77
2022-10-23T09:30:33.572Z,37.28
2022-10-23T09:33:01.694Z,36.07
2022-10-23T09:35:31.325Z,36.69
2022-10-23T09:37:58.000Z,36.59
2022-10-23T09:40:42.056Z,35.73
2022-10-23T09:43:17.799Z,34.65
2022-10-23T09:45:44.514Z,35.18
2022-10-23T09:48:17.616Z,35.41
2022-10-23T09:50:56.775Z,35.29
2022-10-23T09:53:48.070Z,35.29
2022-10-23T09:56:25.710Z,35.85
2022-10-23T09:59:13.183Z,36.09
2022-10-23T10:01:55.538Z,36.28
2022-10-23T10:04:41.700Z,35.65
2022-10-23T10:07:32.196Z,33.93
2022-10-23T10:10:01.313Z,34.08
2022-10-23T10:12:37.759Z,34.67
2022-10-23T10:15:35.462Z,34.76
2022-10-23T10:18:43.467Z,34.18
2022-10-23T10:21:12.908Z,33.72
2022-10-23T10:23:42.055Z,34.12
2022-10-23T10:26:17.782Z,34.35
2022-10-23T10:28:53.251Z,34.31
2022-10-23T10:31:52.976Z,33.72
2022-10-23T10:34:38.441Z,34.25
2022-10-23T10:37:50.016Z,33.78
2022-10-23T10:40:27.406Z,33.25
2022-10-23T10:43:48.377Z,33.54
2022-10-23T10:46:30.005Z,32.81
2022-10-23T10:49:21.580Z,33.18
2022-10-23T10:51:48.514Z,33.29
2022-10-23T10:54:17.847Z,33.23
2022-10-23T10:56:47.354Z,33.15
2022-10-23T10:59:38.880Z,33.07
2022-10-23T11:02:28.676Z,33.18
2022-10-23T11:05:13.043Z,32.90
2022-10-23T11:08:05.506Z,32.76
2022-10-23T11:10:33.615Z,32.29
2022-10-23T11:13:00.345Z,32.71
2022-10-23T11:15:38.905Z,32.27
2022-10-23T11:18:14.907Z,31.67
2022-10-23T11:20:57.583Z,31.48
2022-10-23T11:23:45.962Z,31.36
2022-10-23T11:26:51.968Z,30.77
2022-10-23T11:29:36.647Z,31.24
2022-10-23T11:32:18.118Z,31.44
2022-10-23T11:35:18.447Z,31.17
2022-10-23T11:37:45.326Z,30.64
2022-10-23T11:40:12.050Z,30.60
2022-10-23T11:42:41.943Z,31.17
2022-10-23T11:45:39.681Z,31.09
2022-10-23T11:48:38.234Z,30.59
2022-10-23T11:51:05.756Z,30.30
2022-10-23T11:53:32.363Z,30.24
2022-10-23T11:56:25.176Z,30.33
2022-10-23T11:58:59.449Z,30.30
2022-10-23T12:01:45.542Z,29.69
2022-10-23T12:04:15.409Z,29.48
2022-10-23T12:06:46.815Z,29.75
2022-10-23T12:09:25.360Z,29.95
2022-10-23T12:12:05.732Z,30.18
2022-10-23T12:14:49.591Z,29.96
2022-10-23T12:17:24.842Z,30.24
2022-10-23T12:20:15.510Z,29.70
2022-10-23T12:23:14.775Z,29.65
2022-10-23T12:26:22.927Z,29.78
2022-10-23T12:29:18.586Z,30.13
2022-10-23T12:32:10.080Z,30.03
2022-10-23T12:34:55.603Z,30.26
2022-10-23T12:37:51.594Z,29.95
2022-10-23T12:40:18.170Z,30.06
2022-10-23T12:42:54.673Z,29.62
2022-10-23T12:45:28.317Z,30.37
2022-10-23T12:47:54.969Z,30.13
2022-10-23T12:50:23.435Z,30.33
2022-10-23T12:52:53.817Z,30.25
2022-10-23T12:55:21.145Z,29.88
2022-10-23T12:57:47.858Z,30.10
2022-10-23T13:00:18.322Z,29.49
2022-10-23T13:02:45.151Z,29.10
2022-10-23T13:05:19.194Z,28.52
2022-10-23T13:07:48.220Z,29.08
2022-10-23T13:10:19.970Z,29.58
2022-10-23T13:13:07.117Z,30.07
2022-10-23T13:15:42.331Z,30.44
2022-10-23T13:18:10.880Z,30.80
2022-10-23T13:20:41.010Z,31.05
2022-10-23T13:23:32.970Z,30.93
2022-10-23T13:26:25.623Z,33.78
2022-10-23T13:28:52.886Z,34.61
2022-10-23T13:31:31.502Z,35.87
2022-10-23T13:34:00.826Z,36.04
2022-10-23T13:36:29.991Z,36.04
2022-10-23T13:39:02.238Z,36.38
2022-10-23T13:41:35.972Z,36.38
2022-10-23T13:44:02.535Z,36.59
2022-10-23T13:46:29.513Z,37.26
2022-10-23T13:48:56.088Z,37.07
2022-10-23T13:51:27.435Z,37.03
2022-10-23T13:53:54.924Z,37.34
2022-10-23T13:56:26.710Z,37.01
2022-10-23T13:58:53.676Z,37.87
2022-10-23T14:01:25.094Z,38.36
2022-10-23T14:03:53.710Z,38.57
2022-10-23T14:06:20.818Z,38.08
2022-10-23T14:08:47.957Z,38.53
2022-10-23T14:11:16.200Z,39.02
2022-10-23T14:13:42.917Z,38.39
2022-10-23T14:16:12.328Z,38.57
2022-10-23T14:18:39.114Z,37.03
2022-10-23T14:21:08.128Z,35.97
2022-10-23T14:23:35.023Z,35.46
2022-10-23T14:26:10.515Z,35.84
2022-10-23T14:28:37.811Z,35.71
2022-10-23T14:31:06.351Z,37.53
2022-10-23T14:33:33.189Z,38.70
2022-10-23T14:36:00.032Z,39.36
2022-10-23T14:38:27.054Z,39.48
2022-10-23T14:40:53.671Z,39.65
2022-10-23T14:43:20.271Z,39.87
2022-10-23T14:45:46.836Z,40.20
2022-10-23T14:48:13.437Z,40.82
2022-10-23T14:50:44.458Z,41.54
2022-10-23T14:53:11.379Z,41.29
2022-10-23T14:55:38.174Z,41.91
2022-10-23T14:58:05.429Z,42.76
2022-10-23T15:00:32.064Z,42.59
2022-10-23T15:02:58.688Z,42.96
2022-10-23T15:05:25.354Z,43.14
2022-10-23T15:07:51.901Z,43.48
2022-10-23T15:10:18.706Z,44.40
2022-10-23T15:12:45.630Z,44.99
2022-10-23T15:15:12.568Z,45.17
2022-10-23T15:17:39.193Z,45.21
2022-10-23T15:20:06.431Z,45.86
2022-10-23T15:22:32.979Z,46.10
2022-10-23T15:24:59.598Z,46.05
2022-10-23T15:27:26.412Z,46.57
2022-10-23T15:29:52.961Z,46.58
2022-10-23T15:32:19.537Z,47.17
2022-10-23T15:34:49.789Z,47.43
2022-10-23T15:37:16.455Z,47.73
2022-10-23T15:39:43.331Z,48.31
2022-10-23T15:42:10.281Z,48.41
2022-10-23T15:44:36.989Z,48.94
2022-10-23T15:47:03.658Z,48.78
2022-10-23T15:49:31.068Z,49.13
2022-10-23T15:51:58.352Z,49.44
2022-10-23T15:54:28.117Z,50.13
2022-10-23T15:56:57.574Z,50.12
2022-10-23T15:59:25.186Z,50.77
2022-10-23T16:01:52.521Z,50.00
2022-10-23T16:04:19.423Z,50.21
2022-10-23T16:06:46.107Z,50.72
2022-10-23T16:09:12.728Z,50.89
2022-10-23T16:11:41.493Z,51.23
2022-10-23T16:14:16.331Z,51.74
2022-10-23T16:16:43.404Z,52.38
2022-10-23T16:19:11.058Z,52.06
2022-10-23T16:21:37.848Z,52.57
2022-10-23T16:24:06.887Z,52.88
2022-10-23T16:26:37.396Z,53.21
2022-10-23T16:29:06.546Z,53.56
2022-10-23T16:31:33.248Z,53.65
2022-10-23T16:34:01.647Z,53.92
2022-10-23T16:36:29.406Z,54.86
2022-10-23T16:38:56.626Z,55.58
2022-10-23T16:41:23.292Z,55.77
2022-10-23T16:43:50.036Z,55.95
2022-10-23T16:46:21.421Z,56.04
2022-10-23T16:48:49.165Z,56.60
2022-10-23T16:51:18.802Z,56.63
2022-10-23T16:53:46.229Z,56.79
2022-10-23T16:56:15.508Z,56.88
2022-10-23T16:58:43.395Z,57.71
2022-10-23T17:01:13.797Z,57.75
2022-10-23T17:03:43.550Z,58.27
2022-10-23T17:06:12.646Z,58.03
2022-10-23T17:08:40.269Z,58.14
2022-10-23T17:11:16.071Z,58.85
2022-10-23T17:13:48.382Z,59.11
2022-10-23T17:16:18.399Z,59.48
2022-10-23T17:18:45.868Z,59.71
2022-10-23T17:21:14.361Z,59.97
2022-10-23T17:23:41.492Z,60.48
2022-10-23T17:26:11.874Z,60.86
2022-10-23T17:28:41.914Z,61.15
2022-10-23T17:31:16.155Z,61.23
2022-10-23T17:33:44.117Z,61.85
2022-10-23T17:36:12.391Z,62.02
2022-10-23T17:38:41.252Z,62.29
2022-10-23T17:41:08.710Z,62.36
2022-10-23T17:43:36.114Z,62.05
2022-10-23T17:46:07.598Z,62.85
2022-10-23T17:48:35.289Z,63.42
2022-10-23T17:51:03.560Z,62.96
2022-10-23T17:53:30.721Z,63.07
2022-10-23T17:55:57.637Z,63.13
2022-10-23T17:58:24.359Z,63.64
2022-10-23T18:00:51.263Z,63.18
2022-10-23T18:03:19.831Z,63.52
2022-10-23T18:05:46.895Z,63.81
2022-10-23T18:08:14.275Z,64.24
2022-10-23T18:10:41.086Z,64.11
2022-10-23T18:13:07.818Z,64.88
2022-10-23T18:15:35.989Z,64.93
2022-10-23T18:18:07.980Z,66.32
2022-10-23T18:20:43.771Z,66.06
2022-10-23T18:23:10.482Z,65.70
2022-10-23T18:25:43.116Z,65.49
2022-10-23T18:28:09.955Z,66.04
2022-10-23T18:33:05.369Z,66.51
2022-10-23T18:35:36.062Z,66.38
2022-10-23T18:38:04.175Z,66.46
2022-10-23T18:40:32.388Z,67.16
2022-10-23T18:42:59.413Z,67.48
2022-10-23T18:45:26.665Z,68.00
2022-10-23T18:47:53.570Z,67.95
2022-10-23T18:50:20.597Z,67.74
2022-10-23T18:52:47.436Z,67.44
2022-10-23T18:55:14.781Z,67.13
2022-10-23T18:57:42.166Z,67.26
2022-10-23T19:00:10.988Z,68.98
2022-10-23T19:02:38.661Z,69.26
2022-10-23T19:05:07.063Z,69.26
2022-10-23T19:07:36.915Z,68.25
2022-10-23T19:10:04.180Z,69.64
2022-10-23T19:12:31.000Z,69.57
2022-10-23T19:14:57.819Z,69.65
2022-10-23T19:17:30.038Z,69.37
2022-10-23T19:20:09.135Z,69.28
2022-10-23T19:22:37.843Z,69.62
2022-10-23T19:25:11.349Z,69.33
2022-10-23T19:27:38.874Z,69.68
2022-10-23T19:30:12.808Z,70.01
2022-10-23T19:32:44.324Z,69.81
2022-10-23T19:35:12.822Z,69.01
2022-10-23T19:37:39.789Z,69.43
2022-10-23T19:40:07.910Z,69.86
2022-10-23T19:42:38.267Z,69.65
2022-10-23T19:45:06.402Z,69.47
2022-10-23T19:47:33.128Z,69.61
2022-10-23T19:49:59.791Z,69.05
2022-10-23T19:52:26.485Z,69.46
2022-10-23T19:54:53.269Z,70.02
2022-10-23T19:57:22.527Z,69.92
2022-10-23T19:59:51.002Z,70.49
2022-10-23T20:02:21.250Z,70.16
2022-10-23T20:04:47.939Z,70.21
2022-10-23T20:07:14.560Z,71.11
2022-10-23T20:09:41.266Z,70.88
2022-10-23T20:12:07.918Z,70.66
2022-10-23T20:14:34.643Z,70.35
2022-10-23T20:17:01.634Z,70.56
2022-10-23T20:19:28.828Z,70.39
2022-10-23T20:21:55.422Z,71.03
2022-10-23T20:24:22.389Z,72.01
2022-10-23T20:26:54.418Z,72.31
2022-10-23T20:29:22.297Z,71.89
2022-10-23T20:31:49.143Z,71.88
2022-10-23T20:34:15.800Z,71.54
2022-10-23T20:36:46.760Z,72.53
2022-10-23T20:39:25.556Z,72.56
2022-10-23T20:41:55.173Z,75.35
2022-10-23T20:44:22.968Z,75.10
2022-10-23T20:46:49.850Z,75.25
2022-10-23T20:49:17.339Z,75.77
2022-10-23T20:51:43.974Z,75.08
2022-10-23T20:54:10.620Z,74.57
2022-10-23T20:56:39.203Z,74.88
2022-10-23T20:59:14.984Z,74.19
2022-10-23T21:01:44.318Z,73.47
2022-10-23T21:04:13.051Z,73.54
2022-10-23T21:06:57.443Z,72.88
2022-10-23T21:09:29.162Z,73.06
2022-10-23T21:11:55.778Z,72.97
2022-10-23T21:14:22.334Z,73.42
2022-10-23T21:16:48.971Z,73.42
2022-10-23T21:19:16.055Z,73.73
2022-10-23T21:21:43.742Z,73.52
2022-10-23T21:24:15.283Z,72.71
2022-10-23T21:26:42.129Z,73.77
2022-10-23T21:29:24.250Z,73.64
2022-10-23T21:31:56.293Z,72.90
2022-10-23T21:34:24.699Z,74.25
2022-10-23T21:39:38.224Z,73.53
2022-10-23T21:42:05.049Z,73.33
2022-10-23T21:44:31.575Z,72.83
2022-10-23T21:46:58.198Z,73.52
2022-10-23T21:49:24.784Z,73.14
2022-10-23T21:51:51.389Z,73.11
2022-10-23T21:54:17.922Z,73.21
2022-10-23T21:56:53.952Z,73.21
2022-10-23T21:59:25.803Z,73.13
2022-10-23T22:01:54.428Z,73.74
2022-10-23T22:04:22.117Z,73.42
2022-10-23T22:06:49.931Z,72.94
2022-10-23T22:09:19.508Z,73.55
2022-10-23T22:11:46.834Z,73.77
2022-10-23T22:14:13.387Z,73.22
2022-10-23T22:16:42.042Z,73.04
2022-10-23T22:19:11.745Z,73.36
2022-10-23T22:21:38.359Z,73.15
2022-10-23T22:24:05.156Z,73.00
2022-10-23T22:26:35.599Z,73.17
2022-10-23T22:29:06.288Z,73.69
2022-10-23T22:31:34.656Z,73.92
2022-10-23T22:34:13.187Z,74.07
2022-10-23T22:36:49.902Z,75.51
2022-10-23T22:39:16.566Z,76.71
2022-10-23T22:41:47.467Z,77.66
2022-10-23T22:44:14.925Z,79.37
2022-10-23T22:46:42.599Z,79.57
2022-10-23T22:49:09.697Z,79.13
2022-10-23T22:51:38.961Z,79.56
2022-10-23T22:54:05.831Z,79.50
2022-10-23T22:56:32.484Z,79.74
2022-10-23T22:58:59.069Z,79.63
2022-10-23T23:01:38.615Z,79.51
2022-10-23T23:04:14.038Z,79.15
2022-10-23T23:06:51.863Z,77.71
2022-10-23T23:09:18.811Z,76.86
2022-10-23T23:11:51.516Z,76.64
2022-10-23T23:14:22.030Z,76.79
2022-10-23T23:16:50.565Z,77.32
2022-10-23T23:19:17.133Z,77.98
2022-10-23T23:21:43.713Z,77.57
2022-10-23T23:24:11.814Z,77.30
2022-10-23T23:26:38.388Z,76.23
2022-10-23T23:29:04.984Z,76.00
2022-10-23T23:31:31.660Z,76.14
2022-10-23T23:33:58.278Z,76.52
2022-10-23T23:36:26.588Z,76.97
2022-10-23T23:38:53.526Z,78.11
2022-10-23T23:41:21.591Z,79.01
2022-10-23T23:43:48.854Z,78.39
2022-10-23T23:46:15.940Z,78.08
2022-10-23T23:48:47.359Z,78.97
2022-10-23T23:51:16.141Z,78.29
2022-10-23T23:53:42.976Z,79.57
2022-10-23T23:56:09.786Z,78.81
2022-10-23T23:58:36.608Z,80.21
